Time;durP1;ratioP1;P1;durP2;ratioP2;P2;SDS_P1;SDS_P2;PMS_P1;PMS_P2;Temp;Humidity;BMP_temperature;BMP_pressure;BME280_temperature;BME280_humidity;BME280_pressure;Samples;Min_cycle;Max_cycle;Signal;HPM_P1;HPM_P2
2021/04/03 00:02:24;;;;;;;7.73;6.77;;;6.50;99.90;;;;;;5120746;28;20635;-88
2021/04/03 00:04:51;;;;;;;8.00;7.30;;;6.40;99.90;;;;;;5119264;28;20704;-87
2021/04/03 00:07:17;;;;;;;8.47;6.70;;;6.50;99.90;;;;;;5125296;27;20632;-88
2021/04/03 00:09:44;;;;;;;7.90;7.20;;;6.40;99.80;;;;;;5119618;28;20638;-88
2021/04/03 00:12:11;;;;;;;9.90;8.23;;;6.40;99.60;;;;;;5120994;28;20620;-88
2021/04/03 00:14:37;;;;;;;12.00;8.90;;;6.40;99.20;;;;;;5127985;27;21122;-88
2021/04/03 00:17:05;;;;;;;9.53;8.63;;;6.40;99.00;;;;;;5124231;28;21024;-89
2021/04/03 00:19:31;;;;;;;8.87;7.97;;;6.30;99.20;;;;;;5123636;27;20638;-87
2021/04/03 00:21:58;;;;;;;9.77;8.77;;;6.40;99.10;;;;;;5120201;28;20624;-89
2021/04/03 00:24:25;;;;;;;10.83;8.03;;;6.30;99.00;;;;;;5125224;27;20715;-88
2021/04/03 00:26:51;;;;;;;9.73;8.73;;;6.20;99.50;;;;;;5130924;27;20654;-88
2021/04/03 00:29:17;;;;;;;8.70;7.80;;;6.30;99.30;;;;;;5127056;27;20948;-89
2021/04/03 00:31:43;;;;;;;10.23;8.13;;;6.40;99.10;;;;;;5130816;27;20984;-88
2021/04/03 00:34:10;;;;;;;9.87;8.90;;;6.50;98.90;;;;;;5126223;27;20682;-88
2021/04/03 00:36:36;;;;;;;9.57;8.67;;;6.30;99.20;;;;;;5122689;27;20778;-86
2021/04/03 00:39:04;;;;;;;11.43;8.47;;;6.30;99.30;;;;;;5127357;27;20634;-87
2021/04/03 00:41:30;;;;;;;10.53;8.93;;;6.40;99.00;;;;;;5125571;27;21233;-88
2021/04/03 00:43:56;;;;;;;10.43;8.50;;;6.30;99.00;;;;;;5120037;27;20642;-89
2021/04/03 00:46:23;;;;;;;10.00;7.60;;;6.30;99.20;;;;;;5123541;27;20635;-88
2021/04/03 00:48:49;;;;;;;8.60;7.87;;;6.40;98.80;;;;;;5130173;27;20610;-88
2021/04/03 00:51:17;;;;;;;9.70;8.27;;;6.30;98.90;;;;;;5122295;27;21207;-87
2021/04/03 00:53:44;;;;;;;11.37;9.13;;;6.30;98.90;;;;;;5123062;27;20631;-88
2021/04/03 00:56:11;;;;;;;8.70;7.90;;;6.30;98.80;;;;;;5121964;27;21157;-87
2021/04/03 00:58:38;;;;;;;12.03;8.20;;;6.30;98.80;;;;;;5127935;27;20641;-88
2021/04/03 01:01:04;;;;;;;10.40;7.80;;;6.30;99.00;;;;;;5124907;27;20606;-90
2021/04/03 01:03:32;;;;;;;8.77;7.90;;;6.20;98.70;;;;;;5122500;27;20695;-87
2021/04/03 01:05:59;;;;;;;9.47;8.57;;;6.10;99.00;;;;;;5138121;27;20642;-87
2021/04/03 01:08:25;;;;;;;8.87;8.10;;;6.20;99.10;;;;;;5128200;27;20611;-88
2021/04/03 01:10:54;;;;;;;8.97;8.07;;;6.10;99.10;;;;;;5125724;27;21169;-88
2021/04/03 01:13:49;;;;;;;10.20;8.17;;;6.20;99.20;;;;;;5126758;27;20961;-89
2021/04/03 01:16:20;;;;;;;9.30;8.40;;;6.20;99.10;;;;;;5128228;27;20876;-89
2021/04/03 01:18:59;;;;;;;8.73;7.90;;;6.20;99.00;;;;;;5129603;27;20647;-88
2021/04/03 01:21:39;;;;;;;10.60;7.70;;;6.20;98.80;;;;;;5127817;27;20677;-89
2021/04/03 01:24:25;;;;;;;9.60;8.60;;;6.20;98.90;;;;;;5125596;27;20649;-89
2021/04/03 01:27:13;;;;;;;8.47;7.67;;;6.30;99.10;;;;;;5127064;27;20587;-88
2021/04/03 01:29:53;;;;;;;9.93;8.50;;;6.30;98.90;;;;;;5123353;27;20634;-88
2021/04/03 01:32:25;;;;;;;7.10;6.50;;;6.30;98.70;;;;;;5132425;27;20626;-88
2021/04/03 01:34:56;;;;;;;11.90;7.77;;;6.30;98.90;;;;;;5143934;27;20654;-89
2021/04/03 01:37:24;;;;;;;7.63;7.00;;;6.30;98.60;;;;;;5150274;27;20645;-89
2021/04/03 01:39:54;;;;;;;10.40;7.83;;;6.40;98.40;;;;;;5145601;27;20622;-87
2021/04/03 01:42:25;;;;;;;8.70;7.53;;;6.30;98.90;;;;;;5135626;27;20625;-88
2021/04/03 01:44:56;;;;;;;12.37;7.70;;;6.30;98.90;;;;;;5139551;27;20660;-88
2021/04/03 01:47:26;;;;;;;8.60;7.80;;;6.30;98.50;;;;;;5133414;27;20643;-87
2021/04/03 01:49:56;;;;;;;7.70;7.10;;;6.30;98.50;;;;;;5130397;27;20627;-87
2021/04/03 01:52:24;;;;;;;8.10;7.30;;;6.30;98.50;;;;;;5132396;27;20626;-87
2021/04/03 01:54:52;;;;;;;8.30;7.50;;;6.30;98.60;;;;;;5128993;27;20674;-88
2021/04/03 01:57:18;;;;;;;10.67;7.50;;;6.30;98.90;;;;;;5133943;27;20626;-89
2021/04/03 01:59:48;;;;;;;11.50;7.67;;;6.30;99.10;;;;;;5130600;27;20627;-87
2021/04/03 02:02:16;;;;;;;8.50;7.70;;;6.30;98.80;;;;;;5128585;27;20626;-87
2021/04/03 02:04:43;;;;;;;11.00;7.53;;;6.30;98.70;;;;;;5126440;27;20643;-89
2021/04/03 02:07:13;;;;;;;10.03;9.00;;;6.30;98.90;;;;;;5132940;27;20675;-88
2021/04/03 02:09:40;;;;;;;12.33;8.00;;;6.30;99.10;;;;;;5131749;27;20687;-88
2021/04/03 02:12:11;;;;;;;8.90;7.97;;;6.20;99.20;;;;;;5129917;27;20643;-87
2021/04/03 02:14:39;;;;;;;10.10;9.20;;;6.20;99.40;;;;;;5125691;27;21329;-88
2021/04/03 02:17:06;;;;;;;8.57;6.90;;;6.10;99.40;;;;;;5142121;27;20607;-88
2021/04/03 02:19:35;;;;;;;9.77;8.07;;;6.20;99.20;;;;;;5147872;27;20772;-89
2021/04/03 02:22:02;;;;;;;7.53;6.80;;;6.00;99.40;;;;;;5136195;27;21004;-89
2021/04/03 02:24:29;;;;;;;8.60;7.80;;;6.00;99.40;;;;;;5129598;27;20653;-87
2021/04/03 02:26:55;;;;;;;9.20;7.83;;;6.10;99.30;;;;;;5124853;27;20669;-88
2021/04/03 02:29:22;;;;;;;8.07;7.30;;;6.00;99.40;;;;;;5128930;27;20625;-88
2021/04/03 02:31:49;;;;;;;7.03;6.40;;;5.90;99.50;;;;;;5125132;27;20658;-88
2021/04/03 02:34:15;;;;;;;12.10;7.03;;;6.00;99.40;;;;;;5124133;27;20659;-88
2021/04/03 02:36:43;;;;;;;9.63;7.30;;;6.10;99.10;;;;;;5125616;27;20674;-88
2021/04/03 02:39:10;;;;;;;8.03;7.23;;;6.10;99.00;;;;;;5129964;27;20626;-88
2021/04/03 02:41:44;;;;;;;8.70;6.70;;;6.00;99.10;;;;;;5128675;27;20770;-89
2021/04/03 02:44:15;;;;;;;7.80;7.10;;;5.90;99.20;;;;;;5130913;27;21012;-89
2021/04/03 02:46:47;;;;;;;7.90;6.73;;;5.90;99.10;;;;;;5126994;27;20620;-88
2021/04/03 02:49:18;;;;;;;7.93;7.17;;;5.90;99.30;;;;;;5127351;27;21328;-88
2021/04/03 02:51:48;;;;;;;11.90;7.20;;;5.80;99.20;;;;;;5124326;27;20634;-88
2021/04/03 02:54:16;;;;;;;8.67;7.70;;;5.80;99.20;;;;;;5123317;27;20666;-89
2021/04/03 02:56:44;;;;;;;8.93;7.10;;;5.90;99.00;;;;;;5120343;27;20996;-88
2021/04/03 02:59:18;;;;;;;8.17;7.50;;;5.90;99.00;;;;;;5122306;27;20636;-89
2021/04/03 03:01:47;;;;;;;9.17;7.90;;;5.90;98.90;;;;;;5121743;27;21013;-89
2021/04/03 03:04:15;;;;;;;8.00;7.27;;;5.80;99.30;;;;;;5124717;27;20654;-88
2021/04/03 03:06:45;;;;;;;8.80;7.33;;;5.80;99.30;;;;;;5116957;27;20630;-88
2021/04/03 03:09:13;;;;;;;8.20;7.50;;;5.80;99.50;;;;;;5120685;27;20657;-88
2021/04/03 03:11:44;;;;;;;10.43;7.83;;;5.90;99.50;;;;;;5133380;27;20623;-88
2021/04/03 03:14:12;;;;;;;11.37;8.00;;;5.90;99.50;;;;;;5140828;27;20677;-88
2021/04/03 03:16:39;;;;;;;7.90;7.20;;;5.80;99.60;;;;;;5142413;27;20598;-89
2021/04/03 03:19:07;;;;;;;7.83;7.00;;;5.80;99.70;;;;;;5143728;27;20628;-89
2021/04/03 03:21:34;;;;;;;10.90;7.13;;;5.90;99.90;;;;;;5143435;27;20628;-88
2021/04/03 03:24:01;;;;;;;7.63;6.97;;;5.80;99.70;;;;;;5147564;27;20646;-90
2021/04/03 03:26:32;;;;;;;14.13;8.23;;;5.80;99.90;;;;;;5143281;27;20628;-89
2021/04/03 03:28:59;;;;;;;7.70;7.10;;;5.80;99.90;;;;;;5142744;27;20655;-88
2021/04/03 03:31:26;;;;;;;8.87;7.30;;;5.80;99.90;;;;;;5145927;28;20634;-89
2021/04/03 03:33:52;;;;;;;8.40;7.70;;;5.70;99.90;;;;;;5143945;28;20618;-88
2021/04/03 03:36:19;;;;;;;8.33;7.53;;;5.60;99.90;;;;;;5149278;28;20699;-90
2021/04/03 03:38:47;;;;;;;7.13;6.43;;;5.60;99.90;;;;;;5142844;28;20606;-90
2021/04/03 03:41:16;;;;;;;8.00;7.20;;;5.60;99.90;;;;;;5145372;28;20610;-88
2021/04/03 03:43:44;;;;;;;7.17;6.33;;;5.60;99.90;;;;;;5138075;28;20667;-89
2021/04/03 03:46:10;;;;;;;7.53;6.73;;;5.50;99.90;;;;;;5146063;28;20618;-88
2021/04/03 03:48:36;;;;;;;9.23;7.33;;;5.50;99.90;;;;;;5124363;28;20702;-89
2021/04/03 03:51:03;;;;;;;7.07;6.37;;;5.50;99.90;;;;;;5124681;28;20656;-87
2021/04/03 03:53:29;;;;;;;7.23;6.50;;;5.40;99.90;;;;;;5127308;28;20634;-90
2021/04/03 03:55:59;;;;;;;6.53;5.77;;;5.50;99.90;;;;;;5124348;28;20669;-88
2021/04/03 03:58:26;;;;;;;6.00;5.47;;;5.50;99.90;;;;;;5129257;27;21015;-87
2021/04/03 04:00:52;;;;;;;10.00;5.90;;;5.50;99.90;;;;;;5127286;27;20618;-87
2021/04/03 04:03:18;;;;;;;7.03;5.97;;;5.40;99.90;;;;;;5127901;27;20630;-88
2021/04/03 04:05:45;;;;;;;11.23;7.00;;;5.40;99.90;;;;;;5134452;27;20648;-88
2021/04/03 04:08:13;;;;;;;7.47;6.73;;;5.30;99.90;;;;;;5139796;27;20622;-90
2021/04/03 04:10:39;;;;;;;11.03;6.30;;;5.30;99.90;;;;;;5140230;27;20630;-89
2021/04/03 04:13:05;;;;;;;8.77;6.83;;;5.10;99.90;;;;;;5144588;27;20625;-89
2021/04/03 04:15:33;;;;;;;11.07;6.73;;;5.00;99.90;;;;;;5146290;27;20659;-89
2021/04/03 04:18:06;;;;;;;6.37;5.57;;;5.00;99.90;;;;;;5131309;27;21048;-90
2021/04/03 04:20:33;;;;;;;12.50;7.27;;;5.00;99.90;;;;;;5126503;27;20626;-88
2021/04/03 04:22:59;;;;;;;7.43;5.27;;;4.90;99.90;;;;;;5129689;27;20628;-89
2021/04/03 04:25:26;;;;;;;7.00;6.33;;;4.90;99.90;;;;;;5129908;27;21010;-88
2021/04/03 04:27:52;;;;;;;5.80;5.30;;;4.80;99.90;;;;;;5125454;27;20664;-89
2021/04/03 04:30:19;;;;;;;7.80;5.50;;;4.80;99.90;;;;;;5124713;27;20607;-89
2021/04/03 04:32:47;;;;;;;6.67;6.07;;;4.70;99.90;;;;;;5114616;27;20639;-88
2021/04/03 04:35:14;;;;;;;6.37;5.23;;;4.70;99.90;;;;;;5119661;27;20679;-89
2021/04/03 04:37:43;;;;;;;9.13;6.80;;;4.60;99.90;;;;;;5128416;27;20626;-89
2021/04/03 04:40:12;;;;;;;6.77;5.97;;;4.60;99.90;;;;;;5126150;27;20637;-89
2021/04/03 04:42:40;;;;;;;8.03;6.03;;;4.70;99.90;;;;;;5121144;27;20626;-88
2021/04/03 04:45:08;;;;;;;7.00;5.93;;;4.60;99.90;;;;;;5127207;27;20649;-89
2021/04/03 04:47:34;;;;;;;8.47;5.90;;;4.60;99.90;;;;;;5129854;27;20626;-90
2021/04/03 04:50:02;;;;;;;6.43;5.60;;;4.60;99.90;;;;;;5133501;27;20629;-89
2021/04/03 04:52:31;;;;;;;10.43;6.17;;;4.70;99.90;;;;;;5126724;27;20642;-88
2021/04/03 04:54:58;;;;;;;6.70;6.10;;;4.70;99.90;;;;;;5126340;27;20948;-88
2021/04/03 04:57:25;;;;;;;6.67;6.07;;;4.80;99.90;;;;;;5126063;27;20621;-88
2021/04/03 04:59:52;;;;;;;6.93;6.23;;;4.80;99.90;;;;;;5123824;27;20626;-88
2021/04/03 05:02:19;;;;;;;6.07;5.40;;;4.90;99.90;;;;;;5123191;27;20662;-88
2021/04/03 05:04:45;;;;;;;5.93;5.43;;;4.90;99.90;;;;;;5123793;27;20646;-87
2021/04/03 05:07:15;;;;;;;8.60;5.40;;;4.90;99.90;;;;;;5121303;27;20955;-87
2021/04/03 05:09:41;;;;;;;5.40;5.00;;;4.90;99.90;;;;;;5123191;27;20684;-88
2021/04/03 05:12:09;;;;;;;6.57;5.40;;;5.10;99.90;;;;;;5126527;27;20629;-88
2021/04/03 05:14:41;;;;;;;9.93;6.73;;;5.00;99.90;;;;;;5128226;27;20673;-88
2021/04/03 05:17:08;;;;;;;5.50;5.00;;;5.10;99.90;;;;;;5125485;27;20637;-87
2021/04/03 05:19:35;;;;;;;8.83;5.60;;;5.10;99.90;;;;;;5122586;27;21190;-86
2021/04/03 05:22:02;;;;;;;8.23;5.67;;;5.10;99.90;;;;;;5125625;27;20633;-88
2021/04/03 05:24:29;;;;;;;8.10;5.63;;;5.10;99.90;;;;;;5123827;27;20646;-86
2021/04/03 05:26:55;;;;;;;7.90;6.30;;;5.10;99.90;;;;;;5127424;27;20610;-90
2021/04/03 05:29:23;;;;;;;6.00;5.30;;;5.20;99.90;;;;;;5131936;27;20634;-88
2021/04/03 05:31:49;;;;;;;6.03;5.43;;;5.20;99.90;;;;;;5124060;27;20626;-87
2021/04/03 05:34:15;;;;;;;7.80;6.17;;;5.30;99.90;;;;;;5123748;27;20722;-89
2021/04/03 05:36:43;;;;;;;7.73;5.77;;;5.30;99.90;;;;;;5120942;27;20668;-88
2021/04/03 05:39:09;;;;;;;6.47;5.70;;;5.40;99.90;;;;;;5119960;27;20833;-87
2021/04/03 05:41:37;;;;;;;6.17;5.63;;;5.40;99.90;;;;;;5126364;27;20641;-85
2021/04/03 05:44:03;;;;;;;7.37;6.00;;;5.50;99.90;;;;;;5132922;27;20680;-87
2021/04/03 05:46:30;;;;;;;6.00;4.67;;;5.60;99.90;;;;;;5136000;27;21216;-88
2021/04/03 05:49:00;;;;;;;5.70;5.20;;;5.70;99.90;;;;;;5123967;27;20619;-86
2021/04/03 05:51:27;;;;;;;7.47;5.87;;;5.70;99.90;;;;;;5121244;27;21207;-88
2021/04/03 05:53:54;;;;;;;8.50;5.90;;;5.70;99.90;;;;;;5124215;27;20677;-89
2021/04/03 05:56:20;;;;;;;5.47;4.70;;;5.70;99.90;;;;;;5121662;27;21478;-88
2021/04/03 05:58:49;;;;;;;10.13;5.23;;;5.70;99.90;;;;;;5123875;27;20603;-88
2021/04/03 06:01:15;;;;;;;7.17;5.37;;;5.70;99.90;;;;;;5125933;27;20630;-86
2021/04/03 06:03:41;;;;;;;9.50;5.60;;;5.80;99.90;;;;;;5124466;27;20829;-87
2021/04/03 06:06:08;;;;;;;7.60;5.40;;;5.80;99.90;;;;;;5121642;27;20623;-88
2021/04/03 06:08:34;;;;;;;8.20;5.30;;;6.00;99.90;;;;;;5128137;27;20668;-87
2021/04/03 06:11:13;;;;;;;5.80;4.87;;;6.00;99.70;;;;;;5124720;27;20636;-87
2021/04/03 06:13:42;;;;;;;9.00;5.07;;;6.20;99.60;;;;;;5123023;27;20741;-87
2021/04/03 06:16:33;;;;;;;7.40;5.23;;;6.10;99.70;;;;;;5117955;27;20663;-86
2021/04/03 06:19:19;;;;;;;5.90;5.17;;;6.10;99.80;;;;;;5111359;27;20630;-87
2021/04/03 06:21:48;;;;;;;8.17;5.30;;;6.10;99.90;;;;;;5123368;27;20629;-88
2021/04/03 06:24:26;;;;;;;5.03;4.57;;;6.20;99.50;;;;;;5124226;27;20600;-86
2021/04/03 06:27:05;;;;;;;5.07;4.23;;;6.30;99.80;;;;;;5120977;27;20599;-86
2021/04/03 06:29:38;;;;;;;4.67;4.27;;;6.30;98.60;;;;;;5120383;27;20638;-87
2021/04/03 06:32:09;;;;;;;4.30;3.90;;;6.40;99.10;;;;;;5131957;27;20650;-86
2021/04/03 06:34:48;;;;;;;5.60;4.10;;;6.50;98.60;;;;;;5123071;27;20650;-87
2021/04/03 06:37:25;;;;;;;6.00;4.10;;;6.70;98.40;;;;;;5122930;27;20633;-87
2021/04/03 06:39:55;;;;;;;7.10;4.83;;;6.70;98.10;;;;;;5121749;27;20633;-88
2021/04/03 06:42:43;;;;;;;5.77;4.43;;;6.40;98.50;;;;;;5122509;27;20650;-88
2021/04/03 06:45:25;;;;;;;4.77;4.23;;;6.40;98.80;;;;;;5122903;27;20633;-87
2021/04/03 06:47:57;;;;;;;9.23;5.03;;;6.40;98.70;;;;;;5117887;27;20653;-86
2021/04/03 06:50:25;;;;;;;5.23;4.63;;;6.60;98.60;;;;;;5124648;27;20617;-86
2021/04/03 06:52:54;;;;;;;6.33;4.60;;;6.60;98.60;;;;;;5127444;27;20654;-86
2021/04/03 06:55:26;;;;;;;5.80;4.50;;;6.70;98.10;;;;;;5123704;27;20626;-86
2021/04/03 06:57:54;;;;;;;5.47;4.97;;;6.60;98.30;;;;;;5128293;27;20630;-88
2021/04/03 07:00:21;;;;;;;7.00;4.53;;;6.60;98.20;;;;;;5123222;27;20631;-87
2021/04/03 07:02:56;;;;;;;7.23;5.27;;;6.50;98.70;;;;;;5122349;27;21144;-85
2021/04/03 07:05:24;;;;;;;6.10;4.40;;;6.70;98.70;;;;;;5121908;27;20613;-87
2021/04/03 07:07:50;;;;;;;5.40;4.30;;;6.90;98.50;;;;;;5124429;27;20578;-88
2021/04/03 07:10:18;;;;;;;6.30;4.70;;;7.00;97.90;;;;;;5127832;27;20664;-87
2021/04/03 07:12:47;;;;;;;7.50;5.40;;;7.00;98.40;;;;;;5124593;27;21050;-87
2021/04/03 07:15:14;;;;;;;4.67;3.93;;;7.00;97.30;;;;;;5121152;27;20647;-86
2021/04/03 07:17:43;;;;;;;5.20;3.60;;;7.00;97.20;;;;;;5125373;27;21159;-88
2021/04/03 07:20:13;;;;;;;5.07;4.70;;;7.00;97.30;;;;;;5115284;27;21185;-90
2021/04/03 07:22:45;;;;;;;6.13;4.30;;;7.00;97.10;;;;;;5122986;27;20710;-86
2021/04/03 07:25:13;;;;;;;6.00;4.00;;;6.90;97.00;;;;;;5118310;27;20650;-84
2021/04/03 07:27:42;;;;;;;5.43;3.97;;;7.10;96.70;;;;;;5115110;27;20732;-85
2021/04/03 07:30:11;;;;;;;6.40;3.80;;;7.30;96.60;;;;;;5125866;27;21248;-86
2021/04/03 07:32:39;;;;;;;5.50;4.00;;;7.50;96.50;;;;;;5118844;28;21498;-85
2021/04/03 07:35:19;;;;;;;6.77;4.00;;;7.70;96.10;;;;;;5113330;27;21194;-85
2021/04/03 07:37:47;;;;;;;9.30;3.93;;;7.40;96.10;;;;;;5122592;28;20634;-86
2021/04/03 07:40:15;;;;;;;5.03;4.00;;;7.60;96.00;;;;;;5123575;28;20631;-85
2021/04/03 07:42:42;;;;;;;5.00;3.90;;;7.80;96.10;;;;;;5126327;28;20638;-86
2021/04/03 07:45:41;;;;;;;7.40;4.07;;;8.10;95.30;;;;;;5122303;28;20964;-86
2021/04/03 07:48:11;;;;;;;7.10;4.13;;;7.70;95.60;;;;;;5123822;28;20626;-85
2021/04/03 07:50:51;;;;;;;6.83;4.40;;;7.70;96.20;;;;;;5124010;28;20644;-86
2021/04/03 07:53:34;;;;;;;6.30;4.50;;;7.80;95.90;;;;;;5119366;28;20907;-84
2021/04/03 07:56:00;;;;;;;3.93;3.50;;;7.80;95.90;;;;;;5118565;28;21029;-85
2021/04/03 07:58:28;;;;;;;7.57;3.80;;;8.10;95.60;;;;;;5118124;28;20639;-85
2021/04/03 08:00:56;;;;;;;4.20;3.07;;;8.60;95.40;;;;;;5123907;27;20904;-86
2021/04/03 08:03:25;;;;;;;4.37;3.47;;;8.50;94.20;;;;;;5120896;27;20647;-87
2021/04/03 08:06:01;;;;;;;5.40;2.97;;;8.50;94.30;;;;;;5120058;28;20622;-86
2021/04/03 08:08:28;;;;;;;3.30;2.20;;;8.60;94.20;;;;;;5121950;28;20998;-86
2021/04/03 08:11:12;;;;;;;4.80;3.07;;;8.70;93.60;;;;;;5122020;28;20653;-86
2021/04/03 08:13:41;;;;;;;5.43;3.30;;;8.70;93.10;;;;;;5124809;27;20629;-87
2021/04/03 08:16:13;;;;;;;8.03;3.30;;;8.00;93.90;;;;;;5123672;28;21132;-84
2021/04/03 08:18:42;;;;;;;3.20;2.53;;;8.00;94.20;;;;;;5121258;27;20614;-85
2021/04/03 08:21:10;;;;;;;4.17;3.70;;;7.90;94.60;;;;;;5117544;28;20630;-87
2021/04/03 08:23:40;;;;;;;3.63;3.20;;;7.90;95.00;;;;;;5120411;28;20606;-86
2021/04/03 08:26:08;;;;;;;5.20;3.67;;;7.90;95.20;;;;;;5113546;28;20945;-85
2021/04/03 08:28:34;;;;;;;6.03;2.93;;;7.90;94.60;;;;;;5119591;28;20633;-84
2021/04/03 08:31:14;;;;;;;5.43;3.17;;;8.40;94.30;;;;;;5123580;28;20624;-86
2021/04/03 08:33:40;;;;;;;6.30;3.53;;;7.90;94.20;;;;;;5122154;28;21209;-85
2021/04/03 08:36:13;;;;;;;4.50;3.40;;;7.80;94.90;;;;;;5127869;28;20711;-86
2021/04/03 08:38:41;;;;;;;3.00;2.70;;;8.20;94.60;;;;;;5121556;27;20626;-86
2021/04/03 08:41:09;;;;;;;3.80;3.37;;;8.20;94.10;;;;;;5119737;28;20636;-85
2021/04/03 08:43:35;;;;;;;5.43;3.60;;;8.50;93.60;;;;;;5122695;28;20622;-85
2021/04/03 08:46:08;;;;;;;7.60;3.80;;;8.90;93.60;;;;;;5117546;27;20694;-85
2021/04/03 08:48:35;;;;;;;5.67;3.60;;;8.80;93.00;;;;;;5118674;27;20662;-88
2021/04/03 08:51:04;;;;;;;4.23;3.30;;;8.80;92.40;;;;;;5121437;27;20697;-86
2021/04/03 08:53:58;;;;;;;3.30;2.97;;;8.70;92.80;;;;;;5120945;27;20680;-88
2021/04/03 08:56:28;;;;;;;6.33;3.40;;;9.10;92.90;;;;;;5122057;27;20709;-86
2021/04/03 08:58:58;;;;;;;7.27;4.27;;;9.60;92.70;;;;;;5125786;27;21033;-86
2021/04/03 09:01:26;;;;;;;3.30;2.97;;;9.40;91.60;;;;;;5119888;27;20720;-85
2021/04/03 09:03:56;;;;;;;3.63;2.73;;;9.70;91.70;;;;;;5127360;27;20755;-86
2021/04/03 09:06:45;;;;;;;3.30;2.67;;;10.00;90.20;;;;;;5126405;27;20635;-86
2021/04/03 09:09:18;;;;;;;4.20;2.80;;;10.00;90.10;;;;;;5126189;27;21062;-87
2021/04/03 09:11:55;;;;;;;4.83;2.90;;;9.90;89.70;;;;;;5122625;27;20647;-87
2021/04/03 09:14:29;;;;;;;3.73;3.00;;;10.30;88.40;;;;;;5127880;27;21085;-86
2021/04/03 09:16:57;;;;;;;4.60;3.20;;;10.60;86.80;;;;;;5122366;27;20645;-87
2021/04/03 09:19:27;;;;;;;5.77;3.00;;;10.10;87.10;;;;;;5119919;27;20675;-87
2021/04/03 09:21:54;;;;;;;6.77;3.50;;;10.20;88.80;;;;;;5127467;27;20742;-86
2021/04/03 09:24:48;;;;;;;3.80;2.93;;;10.50;86.90;;;;;;5124423;27;20653;-86
2021/04/03 09:27:15;;;;;;;5.40;3.00;;;10.00;87.40;;;;;;5120616;27;20625;-87
2021/04/03 09:29:44;;;;;;;5.73;3.20;;;10.60;86.50;;;;;;5117598;27;21352;-86
2021/04/03 09:32:12;;;;;;;4.10;2.97;;;10.20;87.70;;;;;;5123097;27;20652;-88
2021/04/03 09:34:40;;;;;;;3.87;3.23;;;10.10;87.30;;;;;;5122743;27;20686;-86
2021/04/03 09:37:15;;;;;;;3.20;2.87;;;10.20;88.10;;;;;;5120133;27;20634;-87
2021/04/03 09:39:47;;;;;;;4.00;2.60;;;9.90;88.00;;;;;;5126654;27;20647;-88
2021/04/03 09:42:18;;;;;;;4.00;3.57;;;10.70;86.10;;;;;;5128089;27;20689;-91
2021/04/03 09:44:46;;;;;;;4.03;2.70;;;10.80;84.90;;;;;;5125842;27;20642;-89
2021/04/03 09:47:14;;;;;;;5.63;2.60;;;10.60;83.50;;;;;;5124963;27;20623;-90
2021/04/03 09:49:41;;;;;;;6.63;3.63;;;10.50;82.30;;;;;;5117487;27;21233;-87
2021/04/03 09:52:10;;;;;;;5.80;2.90;;;10.40;84.50;;;;;;5119642;27;20670;-86
2021/04/03 09:54:37;;;;;;;4.80;3.17;;;10.50;83.60;;;;;;5123390;27;20678;-89
2021/04/03 09:57:06;;;;;;;4.33;3.10;;;10.30;85.70;;;;;;5121666;27;21034;-89
2021/04/03 09:59:32;;;;;;;4.60;2.97;;;10.30;86.20;;;;;;5124361;27;20623;-89
2021/04/03 10:02:00;;;;;;;4.87;3.20;;;10.80;84.90;;;;;;5118752;27;20655;-88
2021/04/03 10:04:27;;;;;;;5.30;3.13;;;11.10;82.80;;;;;;5119756;27;21650;-87
2021/04/03 10:06:54;;;;;;;6.33;3.07;;;11.50;83.30;;;;;;5121396;27;20653;-89
2021/04/03 10:09:21;;;;;;;4.50;2.60;;;11.40;82.10;;;;;;5118518;27;20649;-89
2021/04/03 10:11:52;;;;;;;4.33;2.80;;;11.60;81.80;;;;;;5127889;27;20652;-87
2021/04/03 10:14:23;;;;;;;5.53;3.17;;;11.50;79.40;;;;;;5124945;27;20981;-87
2021/04/03 10:16:51;;;;;;;3.00;2.40;;;12.10;78.50;;;;;;5127098;27;20650;-90
2021/04/03 10:19:18;;;;;;;4.90;2.57;;;12.40;76.40;;;;;;5127138;27;20615;-89
2021/04/03 10:21:45;;;;;;;6.30;2.63;;;12.70;76.40;;;;;;5126938;27;20641;-88
2021/04/03 10:24:12;;;;;;;3.70;2.63;;;11.90;77.20;;;;;;5131934;27;20583;-91
2021/04/03 10:26:39;;;;;;;4.73;2.77;;;11.00;76.90;;;;;;5127613;27;20612;-88
2021/04/03 10:29:05;;;;;;;4.60;2.97;;;10.60;81.10;;;;;;5122000;27;20615;-86
2021/04/03 10:31:37;;;;;;;5.40;3.07;;;11.10;81.70;;;;;;5121546;27;21022;-87
2021/04/03 10:34:04;;;;;;;7.40;3.00;;;12.20;78.90;;;;;;5127243;27;20619;-87
2021/04/03 10:36:31;;;;;;;2.73;2.43;;;11.50;79.50;;;;;;5117490;27;20661;-88
2021/04/03 10:38:58;;;;;;;4.67;3.20;;;11.30;79.70;;;;;;5121771;27;20619;-89
2021/04/03 10:41:27;;;;;;;5.77;2.97;;;11.40;80.10;;;;;;5121196;27;20944;-87
2021/04/03 10:43:57;;;;;;;4.20;2.40;;;11.30;80.00;;;;;;5120781;27;20630;-89
2021/04/03 10:46:23;;;;;;;5.13;3.50;;;11.30;80.10;;;;;;5124701;27;21596;-88
2021/04/03 10:48:50;;;;;;;3.63;2.43;;;11.90;80.20;;;;;;5123012;27;20657;-90
2021/04/03 10:51:17;;;;;;;4.87;2.83;;;12.30;77.90;;;;;;5120279;27;21156;-88
2021/04/03 10:53:44;;;;;;;5.93;3.23;;;11.30;78.00;;;;;;5119649;27;20935;-88
2021/04/03 10:56:11;;;;;;;10.07;2.67;;;11.40;79.20;;;;;;5122266;27;20698;-88
2021/04/03 10:58:38;;;;;;;3.40;2.23;;;11.20;78.80;;;;;;5116282;27;20615;-87
2021/04/03 11:01:04;;;;;;;6.40;3.20;;;11.00;79.80;;;;;;5117711;27;20631;-89
2021/04/03 11:03:31;;;;;;;3.60;2.40;;;10.60;80.80;;;;;;5122363;27;20999;-89
2021/04/03 11:05:58;;;;;;;7.90;3.60;;;10.70;81.40;;;;;;5121316;27;20599;-88
2021/04/03 11:08:25;;;;;;;6.47;2.80;;;10.80;79.40;;;;;;5121552;27;20607;-88
2021/04/03 11:10:52;;;;;;;4.03;2.97;;;11.30;79.10;;;;;;5117474;27;20638;-88
2021/04/03 11:13:19;;;;;;;5.33;2.50;;;11.60;77.50;;;;;;5123299;27;20669;-88
2021/04/03 11:15:46;;;;;;;4.93;2.80;;;12.10;77.10;;;;;;5124832;27;20663;-87
2021/04/03 11:18:12;;;;;;;5.07;3.37;;;12.80;76.40;;;;;;5119595;27;20635;-88
2021/04/03 11:20:39;;;;;;;3.53;2.40;;;13.40;71.60;;;;;;5123199;27;20630;-87
2021/04/03 11:23:06;;;;;;;3.87;2.20;;;13.00;71.30;;;;;;5118313;27;20662;-87
2021/04/03 11:25:34;;;;;;;4.83;2.90;;;13.00;67.10;;;;;;5126129;27;20626;-89
2021/04/03 11:28:00;;;;;;;5.00;2.47;;;12.40;67.80;;;;;;5123760;27;20632;-88
2021/04/03 11:30:27;;;;;;;2.60;2.03;;;12.00;68.50;;;;;;5119675;27;20631;-88
2021/04/03 11:32:53;;;;;;;2.40;1.90;;;12.30;68.40;;;;;;5122308;27;21000;-88
2021/04/03 11:35:22;;;;;;;2.80;1.90;;;12.00;67.50;;;;;;5120707;28;20659;-87
2021/04/03 11:37:49;;;;;;;3.43;1.70;;;12.50;68.10;;;;;;5115229;28;20984;-87
2021/04/03 11:40:17;;;;;;;2.70;1.90;;;13.60;64.00;;;;;;5120234;28;20637;-87
2021/04/03 11:42:45;;;;;;;4.23;2.00;;;14.60;63.50;;;;;;5120444;27;20660;-87
2021/04/03 11:45:13;;;;;;;2.60;2.13;;;13.40;61.50;;;;;;5122268;28;20630;-86
2021/04/03 11:47:39;;;;;;;2.47;2.07;;;12.70;64.30;;;;;;5118873;28;20791;-86
2021/04/03 11:50:07;;;;;;;3.50;2.80;;;12.60;65.40;;;;;;5111808;28;20651;-86
2021/04/03 11:52:34;;;;;;;5.33;3.70;;;12.50;66.10;;;;;;5123725;28;20649;-86
2021/04/03 11:55:01;;;;;;;4.83;2.90;;;11.90;66.90;;;;;;5118150;28;21062;-86
2021/04/03 11:57:29;;;;;;;2.83;2.60;;;11.70;67.50;;;;;;5119214;28;21485;-87
2021/04/03 11:59:56;;;;;;;4.00;2.33;;;11.30;69.60;;;;;;5119645;27;20637;-87
2021/04/03 12:02:22;;;;;;;3.13;2.40;;;11.10;71.30;;;;;;5117261;28;20655;-86
2021/04/03 12:04:49;;;;;;;6.27;2.67;;;11.10;71.50;;;;;;5121347;28;20626;-86
2021/04/03 12:07:23;;;;;;;3.13;2.60;;;10.70;72.00;;;;;;5124114;28;21216;-86
2021/04/03 12:09:49;;;;;;;4.13;3.23;;;10.90;73.00;;;;;;5115299;28;20638;-86
2021/04/03 12:12:15;;;;;;;2.57;1.80;;;11.70;71.60;;;;;;5119242;28;20666;-86
2021/04/03 12:14:42;;;;;;;9.80;2.33;;;12.90;68.80;;;;;;5122005;28;20965;-87
2021/04/03 12:17:09;;;;;;;2.97;1.70;;;14.10;59.40;;;;;;5122261;28;20623;-87
2021/04/03 12:19:35;;;;;;;2.37;1.97;;;14.90;58.50;;;;;;5122179;28;20630;-87
2021/04/03 12:22:01;;;;;;;3.90;2.10;;;15.30;55.90;;;;;;5123428;27;21275;-87
2021/04/03 12:24:28;;;;;;;3.40;1.73;;;15.20;55.50;;;;;;5127762;27;20659;-87
2021/04/03 12:26:54;;;;;;;4.77;1.93;;;14.30;56.50;;;;;;5124402;27;20727;-88
2021/04/03 12:29:20;;;;;;;6.50;2.60;;;13.40;56.80;;;;;;5124264;27;20946;-86
2021/04/03 12:31:47;;;;;;;2.93;1.57;;;12.70;59.00;;;;;;5129495;27;20976;-86
2021/04/03 12:34:15;;;;;;;2.40;2.20;;;12.50;61.20;;;;;;5128203;27;21225;-87
2021/04/03 12:36:41;;;;;;;2.50;1.60;;;11.90;60.90;;;;;;5127903;27;20662;-87
2021/04/03 12:39:07;;;;;;;2.73;2.20;;;11.90;61.50;;;;;;5124603;27;20634;-88
2021/04/03 12:41:34;;;;;;;5.40;2.57;;;12.30;60.30;;;;;;5124005;27;20745;-88
2021/04/03 12:44:01;;;;;;;2.30;1.97;;;12.20;58.20;;;;;;5117122;27;20621;-87
2021/04/03 12:46:27;;;;;;;3.23;1.80;;;12.00;60.60;;;;;;5124582;27;20676;-87
2021/04/03 12:48:55;;;;;;;2.37;2.03;;;12.40;59.30;;;;;;5121624;27;20678;-87
2021/04/03 12:51:22;;;;;;;1.93;1.70;;;12.80;59.70;;;;;;5120328;27;20718;-85
2021/04/03 12:53:52;;;;;;;2.60;1.70;;;13.50;57.20;;;;;;5123202;27;21235;-86
2021/04/03 12:56:18;;;;;;;2.43;1.80;;;13.00;55.90;;;;;;5122942;27;21264;-86
2021/04/03 12:58:46;;;;;;;3.53;1.80;;;12.80;57.30;;;;;;5123203;27;21209;-86
2021/04/03 13:01:14;;;;;;;2.63;1.93;;;12.70;58.10;;;;;;5123087;27;20778;-86
2021/04/03 13:03:40;;;;;;;2.60;1.87;;;12.40;57.70;;;;;;5122424;27;21208;-86